• Join FlightAware (Why Join?)
  • Login
  • US Flag 
04:06PM EDT


 

Airport Tracker/Info


-or-


 

Live Flight TrackerFlight Track Log ✈ SKW7367 ✈ 28-Nov-2013 ✈ KDTW - KAPN

Flight Track Log - Related Links

Times and Time Zones

All times are in EST time to prevent confusion due to time zone crossing. See the SKW7367 flight status page for this flight to view local times or setup timezone preferences in your user account.

Time Position Orientation Groundspeed Altitude Reporting Facility
EST Latitude Longitude Course Direction KTS MPH feet Rate Location/Type
12:05PM 42.2117 -83.3481 North 139 160 1,200  Level Cleveland Center
12:06PM 42.1839 -83.3836 223° Southwest 184 212 3,600 3,600 Climbing Cleveland Center
12:07PM 42.1644 -83.4431 246° West 191 220 7,800 3,840 Climbing Cleveland Center
12:07PM 42.1639 -83.4381 99° East 183 211 7,700 1,920 Descending Cleveland Center
12:08PM 42.4986 -83.3732 North  Level Estimated
12:08PM 42.1778 -83.5144 284° West 210 242 9,900  Level Cleveland Center
12:08PM 42.1789 -83.5267 277° West 254 292 9,900 2,160 Level Cleveland Center
12:09PM 42.5939 -83.3654 North  Level FlightAware Approximate
12:09PM 42.2244 -83.5794 319° Northwest 265 305 12,100  Level Cleveland Center
12:10PM 42.6893 -83.3726 North  Level Estimated
12:10PM 42.3075 -83.5597 10° North 307 353 13,400  Level Cleveland Center
12:11PM 42.3964 -83.5328 13° North 322 371 15,000 780 Climbing Cleveland Center
12:12PM 42.4833 -83.5333 360° North 328 377 15,000  Level Cleveland Center
12:13PM 42.5883 -83.5336 360° North 317 365 15,000  Level Cleveland Center
12:14PM 42.6725 -83.5347 359° North 306 352 15,000  Level Cleveland Center
12:15PM 42.7608 -83.5353 360° North 316 364 15,000  Level Cleveland Center
12:16PM 42.8519 -83.5361 360° North 325 374 15,000  Level Cleveland Center
12:17PM 42.9439 -83.5367 360° North 331 381 15,000  Level Cleveland Center
12:18PM 43.0367 -83.5378 359° North 333 383 15,000  Level Cleveland Center
12:19PM 43.1306 -83.5381 360° North 337 388 15,000  Level Cleveland Center
12:20PM 43.2228 -83.5389 360° North 333 383 15,000  Level Cleveland Center
12:21PM 43.3375 -83.5414 359° North 343 395 15,000  Level Cleveland Center
12:22PM 43.4314 -83.5400 North 339 390 15,000  Level Cleveland Center
12:23PM 43.5253 -83.5408 360° North 338 389 15,000  Level Cleveland Center
12:24PM 43.6158 -83.5419 359° North 329 379 15,000  Level Cleveland Center
12:25PM 43.7039 -83.5428 360° North 319 367 15,000  Level Cleveland Center
12:26PM 43.7864 -83.5419 360° North 304 350 15,000  Level Cleveland Center
12:27PM 43.8625 -83.5444 359° North 281 323 15,000  Level Cleveland Center
12:28PM 43.9417 -83.5439 360° North 282 325 15,000  Level Cleveland Center
12:29PM 44.0392 -83.5450 360° North 290 334 15,000  Level Cleveland Center
12:30PM 44.1211 -83.5447 360° North 294 338 15,000  Level Cleveland Center
12:31PM 44.2044 -83.5464 359° North 297 342 15,000  Level Cleveland Center
12:32PM 44.2878 -83.5486 359° North 300 345 15,000  Level Cleveland Center
12:33PM 44.3753 -83.5500 359° North 300 345 15,000  Level Cleveland Center
12:34PM 44.4586 -83.5508 360° North 300 345 15,000 -120 Level Cleveland Center
12:35PM 44.5433 -83.5522 359° North 302 348 14,800 -1,380 Descending Cleveland Center
12:37PM 44.6500 -83.5528 360° North 304 350 12,000 -2,100 Descending Minneapolis Center
12:38PM 44.7297 -83.5539 359° North 292 336 10,300 -1,980 Descending Minneapolis Center
12:39PM 44.8103 -83.5547 360° North 274 315 8,000 -2,220 Descending Minneapolis Center
12:40PM 44.8808 -83.5553 360° North 262 302 5,800 -1,980 Descending Minneapolis Center
12:41PM 44.9503 -83.5519 North 257 296 4,000 -1,140 Descending Minneapolis Center
12:42PM 45.0228 -83.5175 19° North 258 297 3,500 -420 Descending Minneapolis Center
12:43PM 45.0883 -83.4867 18° North 256 295 3,200 -540 Descending Minneapolis Center
12:44PM 45.1464 -83.4950 354° North 208 239 2,500 -600 Descending Minneapolis Center
12:45PM 45.1497 -83.5564 274° West 167 192 2,100 -660 Descending Minneapolis Center
12:46PM 45.1119 -83.5614 185° South 134 154 1,200 -720 Descending Minneapolis Center
12:47PM 45.0828 -83.5611 180° South 127 146 700 -540 Descending Minneapolis Center